Time;durP1;ratioP1;P1;durP2;ratioP2;P2;SDS_P1;SDS_P2;PMS_P1;PMS_P2;Temp;Humidity;BMP_temperature;BMP_pressure;BME280_temperature;BME280_humidity;BME280_pressure;Samples;Min_cycle;Max_cycle;Signal;HPM_P1;HPM_P2
2022/08/04 00:02:22;;;;;;;11.38;4.30;;;19.10;99.90;;;;;;4885561;29;20053;-88
2022/08/04 00:05:29;;;;;;;10.45;3.28;;;19.10;99.90;;;;;;4925882;29;20058;-88
2022/08/04 00:08:15;;;;;;;14.18;4.22;;;19.00;99.90;;;;;;4929709;29;20060;-83
2022/08/04 00:11:02;;;;;;;9.27;3.90;;;19.00;99.90;;;;;;4927039;29;20056;-86
2022/08/04 00:14:03;;;;;;;14.25;4.03;;;19.00;99.90;;;;;;4928083;29;20079;-87
2022/08/04 00:16:53;;;;;;;12.90;3.97;;;19.10;99.90;;;;;;4925061;29;20120;-86
2022/08/04 00:19:48;;;;;;;12.10;3.67;;;19.00;99.90;;;;;;4924348;29;20090;-85
2022/08/04 00:22:38;;;;;;;14.63;3.85;;;19.00;99.90;;;;;;4922735;29;20044;-85
2022/08/04 00:25:25;;;;;;;8.70;3.30;;;19.00;99.90;;;;;;4922968;29;20060;-84
2022/08/04 00:28:12;;;;;;;10.20;3.22;;;19.00;99.90;;;;;;4920130;29;20059;-85
2022/08/04 00:30:58;;;;;;;10.43;3.17;;;19.00;99.90;;;;;;4905024;29;20519;-90
2022/08/04 00:33:45;;;;;;;12.32;4.35;;;19.00;99.90;;;;;;4926483;29;20047;-87
2022/08/04 00:36:33;;;;;;;9.60;3.22;;;19.00;99.90;;;;;;4927191;29;20528;-86
2022/08/04 00:39:20;;;;;;;8.73;3.30;;;18.90;99.90;;;;;;4927011;29;20052;-82
2022/08/04 00:42:12;;;;;;;9.07;3.97;;;18.90;99.90;;;;;;4920029;29;20088;-82
2022/08/04 00:45:36;;;;;;;8.00;3.70;;;18.90;99.90;;;;;;4920268;29;20056;-83
2022/08/04 00:48:55;;;;;;;11.25;3.17;;;18.90;99.90;;;;;;4918916;29;20056;-87
2022/08/04 00:51:48;;;;;;;15.52;4.18;;;18.90;99.90;;;;;;4916317;29;20055;-86
2022/08/04 00:55:02;;;;;;;16.00;3.35;;;18.90;99.90;;;;;;4916776;29;20052;-86
2022/08/04 00:58:13;;;;;;;7.40;2.85;;;18.80;99.90;;;;;;4915042;29;20063;-85
2022/08/04 01:01:05;;;;;;;11.55;3.40;;;18.90;99.90;;;;;;4900219;29;20052;-86
2022/08/04 01:04:09;;;;;;;11.13;4.10;;;18.90;99.90;;;;;;4889821;29;20138;-85
2022/08/04 01:07:14;;;;;;;9.70;3.67;;;18.80;99.90;;;;;;4922275;29;20060;-85
2022/08/04 01:10:20;;;;;;;12.10;3.90;;;18.80;99.90;;;;;;4915700;29;20048;-84
2022/08/04 01:13:24;;;;;;;12.73;3.38;;;18.80;99.90;;;;;;4898350;29;20059;-85
2022/08/04 01:16:16;;;;;;;12.32;3.90;;;18.80;99.90;;;;;;4915869;29;20111;-83
2022/08/04 01:19:13;;;;;;;9.07;3.03;;;18.70;99.90;;;;;;4915827;29;20189;-85
2022/08/04 01:22:13;;;;;;;9.68;3.70;;;18.80;99.90;;;;;;4922793;29;20060;-85
2022/08/04 01:25:33;;;;;;;14.10;3.75;;;18.80;99.90;;;;;;4921243;29;20052;-85
2022/08/04 01:28:36;;;;;;;9.27;3.45;;;18.80;99.90;;;;;;4921780;29;20492;-85
2022/08/04 01:31:29;;;;;;;12.27;4.18;;;18.70;99.90;;;;;;4929380;29;20051;-86
2022/08/04 01:34:18;;;;;;;9.00;3.50;;;18.70;99.90;;;;;;4921305;29;20100;-86
2022/08/04 01:37:09;;;;;;;9.93;4.25;;;18.70;99.90;;;;;;4922213;29;20055;-84
2022/08/04 01:40:04;;;;;;;11.40;4.03;;;18.80;99.90;;;;;;4922440;29;20072;-86
2022/08/04 01:42:52;;;;;;;10.00;3.83;;;18.80;99.90;;;;;;4922258;29;20059;-84
2022/08/04 01:45:40;;;;;;;11.43;3.72;;;18.80;99.90;;;;;;4922474;29;20093;-85
2022/08/04 01:48:27;;;;;;;9.23;3.80;;;18.80;99.90;;;;;;4922266;29;20420;-85
2022/08/04 01:51:14;;;;;;;10.07;3.00;;;18.80;99.90;;;;;;4925250;29;20052;-84
2022/08/04 01:54:00;;;;;;;10.60;3.58;;;18.80;99.90;;;;;;4927959;29;20083;-85
2022/08/04 01:56:49;;;;;;;8.32;3.55;;;18.80;99.90;;;;;;4910422;29;20060;-84
2022/08/04 01:59:37;;;;;;;12.13;3.13;;;18.80;99.90;;;;;;4921976;29;20070;-84
2022/08/04 02:02:24;;;;;;;8.48;3.03;;;18.80;99.90;;;;;;4920965;29;20061;-85
2022/08/04 02:05:13;;;;;;;7.90;3.38;;;18.80;99.90;;;;;;4921233;29;20143;-86
2022/08/04 02:08:29;;;;;;;9.15;3.58;;;18.80;99.90;;;;;;4922104;29;20119;-85
2022/08/04 02:11:20;;;;;;;10.48;3.50;;;18.80;99.90;;;;;;4925471;29;20060;-84
2022/08/04 02:14:39;;;;;;;9.68;3.05;;;18.70;99.90;;;;;;4927142;29;20111;-84
2022/08/04 02:18:03;;;;;;;9.82;3.50;;;18.70;99.90;;;;;;4908610;29;20056;-85
2022/08/04 02:20:57;;;;;;;9.18;3.20;;;18.70;99.90;;;;;;4921968;29;20051;-85
2022/08/04 02:23:52;;;;;;;12.13;3.42;;;18.70;99.90;;;;;;4923097;29;20051;-84
2022/08/04 02:26:41;;;;;;;8.75;3.60;;;18.70;99.90;;;;;;4905955;29;20111;-85
2022/08/04 02:29:36;;;;;;;12.75;4.63;;;18.90;99.90;;;;;;4924064;29;20044;-84
2022/08/04 02:32:29;;;;;;;12.40;3.90;;;18.90;99.90;;;;;;4902698;29;20048;-86
2022/08/04 02:35:24;;;;;;;13.23;3.78;;;19.00;99.90;;;;;;4927082;29;20183;-85
2022/08/04 02:38:15;;;;;;;;;;;19.00;99.90;;;;;;4918308;29;20055;-86
2022/08/04 02:41:03;;;;;;;13.38;3.50;;;19.00;99.90;;;;;;4917788;29;20006;-86
2022/08/04 02:43:54;;;;;;;13.10;4.75;;;19.10;99.90;;;;;;4905671;29;20052;-83
2022/08/04 02:46:41;;;;;;;16.00;5.07;;;19.20;99.90;;;;;;4919714;29;20692;-86
2022/08/04 02:49:29;;;;;;;17.52;4.22;;;19.30;99.90;;;;;;4918589;29;20142;-86
2022/08/04 02:52:17;;;;;;;11.50;4.60;;;19.40;99.90;;;;;;4921522;29;20504;-85
2022/08/04 02:55:09;;;;;;;9.52;3.70;;;19.40;99.90;;;;;;4895136;29;20512;-85
2022/08/04 02:58:00;;;;;;;7.60;3.67;;;19.40;99.90;;;;;;4916523;29;20548;-85
2022/08/04 03:00:50;;;;;;;10.30;4.25;;;19.30;99.90;;;;;;4903839;29;20059;-85
2022/08/04 03:03:49;;;;;;;10.93;4.60;;;19.30;99.90;;;;;;4921088;29;20409;-86
2022/08/04 03:07:12;;;;;;;9.85;4.25;;;19.30;99.90;;;;;;4921675;29;20417;-87
2022/08/04 03:10:25;;;;;;;14.80;5.72;;;19.20;99.90;;;;;;4917904;29;20176;-86
2022/08/04 03:13:41;;;;;;;10.88;4.47;;;19.20;99.90;;;;;;4917690;29;20075;-85
2022/08/04 03:16:57;;;;;;;15.18;5.15;;;19.20;99.90;;;;;;4918518;29;20056;-84
2022/08/04 03:20:26;;;;;;;9.52;4.57;;;19.20;99.90;;;;;;4894235;29;20083;-85
2022/08/04 03:23:41;;;;;;;10.55;4.05;;;19.10;99.90;;;;;;4908246;29;20044;-81
2022/08/04 03:26:45;;;;;;;13.50;4.43;;;19.10;99.90;;;;;;4922899;29;20100;-86
2022/08/04 03:29:54;;;;;;;11.30;4.60;;;19.00;99.90;;;;;;4923278;29;20052;-85
2022/08/04 03:32:52;;;;;;;11.85;4.43;;;19.00;99.90;;;;;;4916453;29;20060;-85
2022/08/04 03:35:41;;;;;;;10.07;4.03;;;19.00;99.90;;;;;;4917321;29;20047;-86
2022/08/04 03:38:30;;;;;;;13.95;5.10;;;18.90;99.90;;;;;;4923061;29;20505;-87
2022/08/04 03:41:57;;;;;;;10.82;5.00;;;18.90;99.90;;;;;;4916033;29;20051;-84
2022/08/04 03:44:55;;;;;;;9.85;4.47;;;18.90;99.90;;;;;;4898171;29;20062;-87
2022/08/04 03:48:06;;;;;;;14.50;5.28;;;18.90;99.90;;;;;;4921189;29;20464;-86
2022/08/04 03:54:31;;;;;;;12.32;4.15;;;18.80;99.90;;;;;;4916597;29;20048;-85
2022/08/04 03:57:45;;;;;;;10.48;3.67;;;18.80;99.90;;;;;;4930956;29;20052;-84
2022/08/04 04:00:56;;;;;;;12.18;4.28;;;18.80;99.90;;;;;;4925153;29;20048;-87
2022/08/04 04:03:42;;;;;;;12.38;4.82;;;18.80;99.90;;;;;;4916824;29;20056;-87
2022/08/04 04:06:47;;;;;;;9.43;4.15;;;18.80;99.90;;;;;;4917886;29;20103;-86
2022/08/04 04:09:55;;;;;;;10.38;3.85;;;18.70;99.90;;;;;;4917395;29;20048;-85
2022/08/04 04:13:15;;;;;;;8.80;3.33;;;18.70;99.90;;;;;;4919961;29;20052;-84
2022/08/04 04:16:01;;;;;;;9.23;3.42;;;18.70;99.90;;;;;;4914974;29;20110;-81
2022/08/04 04:19:21;;;;;;;8.35;3.70;;;18.70;99.90;;;;;;4902335;29;20059;-83
2022/08/04 04:22:32;;;;;;;10.00;3.53;;;18.70;99.90;;;;;;4917521;29;20497;-82
2022/08/04 04:25:43;;;;;;;8.90;3.25;;;18.70;99.90;;;;;;4917342;29;20119;-77
2022/08/04 04:28:59;;;;;;;12.23;4.03;;;18.70;99.90;;;;;;4914377;29;20048;-76
2022/08/04 04:32:00;;;;;;;9.65;3.50;;;18.70;99.90;;;;;;4914943;29;20060;-77
2022/08/04 04:35:24;;;;;;;9.32;3.28;;;18.70;99.90;;;;;;4915249;29;20559;-76
2022/08/04 04:38:33;;;;;;;11.00;3.78;;;18.70;99.90;;;;;;4897683;29;20066;-78
2022/08/04 04:41:41;;;;;;;7.57;3.30;;;18.80;99.90;;;;;;4897519;29;20048;-80
2022/08/04 04:44:54;;;;;;;12.90;3.92;;;18.80;99.90;;;;;;4916780;29;20060;-81
2022/08/04 04:47:54;;;;;;;10.65;3.83;;;18.80;99.90;;;;;;4898409;29;20067;-76
2022/08/04 04:51:15;;;;;;;5.82;2.92;;;18.80;99.90;;;;;;4915212;29;20732;-76
2022/08/04 04:54:26;;;;;;;11.05;3.70;;;18.90;99.90;;;;;;4870484;29;20052;-75
2022/08/04 04:57:16;;;;;;;11.98;4.47;;;18.90;99.90;;;;;;4914169;29;20056;-76
2022/08/04 05:00:09;;;;;;;15.13;4.35;;;19.00;99.90;;;;;;4915384;29;20058;-78
2022/08/04 05:03:22;;;;;;;6.63;2.55;;;19.00;99.90;;;;;;4920261;29;20123;-76
2022/08/04 05:06:19;;;;;;;10.23;3.47;;;19.10;99.90;;;;;;4919778;29;20050;-80
2022/08/04 05:09:17;;;;;;;10.27;4.07;;;19.10;99.90;;;;;;4924410;29;20068;-82
2022/08/04 05:12:05;;;;;;;10.32;3.90;;;19.20;99.90;;;;;;4915327;29;20052;-80
2022/08/04 05:14:55;;;;;;;10.63;3.95;;;19.30;99.90;;;;;;4913235;29;20056;-80
2022/08/04 05:17:48;;;;;;;8.15;3.80;;;19.40;99.90;;;;;;4897520;29;20393;-81
2022/08/04 05:20:39;;;;;;;13.73;4.80;;;19.50;99.90;;;;;;4914233;29;20404;-79
2022/08/04 05:23:30;;;;;;;13.43;4.25;;;19.60;99.90;;;;;;4899768;29;20112;-82
2022/08/04 05:26:19;;;;;;;10.13;4.07;;;19.70;99.90;;;;;;4901396;29;20127;-80
2022/08/04 05:29:16;;;;;;;11.57;4.20;;;19.80;99.90;;;;;;4913556;29;20055;-80
2022/08/04 05:32:07;;;;;;;9.80;4.10;;;19.80;99.90;;;;;;4914096;29;20148;-81
2022/08/04 05:35:08;;;;;;;12.40;4.50;;;19.80;99.90;;;;;;4901604;29;20096;-81
2022/08/04 05:37:57;;;;;;;15.80;3.80;;;19.90;99.90;;;;;;4922436;29;20088;-81
2022/08/04 05:40:44;;;;;;;10.40;4.53;;;20.00;99.90;;;;;;4915165;29;20052;-78
2022/08/04 05:43:32;;;;;;;10.48;5.57;;;20.00;99.90;;;;;;4914760;29;20048;-75
2022/08/04 05:46:19;;;;;;;8.60;4.40;;;20.00;99.90;;;;;;4913566;29;20063;-76
2022/08/04 05:49:08;;;;;;;8.70;4.28;;;20.10;99.90;;;;;;4914209;29;20143;-80
2022/08/04 05:51:58;;;;;;;16.58;4.60;;;20.10;99.90;;;;;;4914255;29;20432;-79
2022/08/04 05:54:45;;;;;;;8.85;4.00;;;20.20;99.90;;;;;;4914433;29;20052;-77
2022/08/04 05:57:32;;;;;;;11.43;3.90;;;20.20;99.90;;;;;;4913980;29;20048;-82
2022/08/04 06:00:19;;;;;;;10.57;3.85;;;20.20;99.90;;;;;;4899090;29;20679;-80
2022/08/04 06:03:06;;;;;;;10.80;4.28;;;20.30;99.90;;;;;;4901745;29;20048;-79
2022/08/04 06:05:55;;;;;;;13.20;4.00;;;20.40;99.90;;;;;;4900994;29;20075;-88
2022/08/04 06:08:41;;;;;;;6.40;3.20;;;20.50;99.90;;;;;;4924918;29;20060;-79
2022/08/04 06:11:29;;;;;;;8.77;4.03;;;20.60;99.90;;;;;;4904751;29;20048;-87
2022/08/04 06:14:16;;;;;;;7.03;3.90;;;20.70;99.90;;;;;;4919693;29;20059;-82
2022/08/04 06:17:04;;;;;;;10.43;4.60;;;20.80;99.90;;;;;;4905055;29;20099;-82
2022/08/04 06:19:53;;;;;;;12.50;4.40;;;20.90;99.90;;;;;;4918310;29;20456;-84
2022/08/04 06:22:41;;;;;;;15.15;5.32;;;20.90;99.90;;;;;;4918171;29;20044;-86
2022/08/04 06:25:31;;;;;;;13.60;3.83;;;21.00;99.90;;;;;;4919768;29;20108;-85
2022/08/04 06:28:19;;;;;;;9.85;4.55;;;21.00;99.90;;;;;;4919576;29;20138;-84
2022/08/04 06:31:08;;;;;;;12.02;4.28;;;21.10;99.90;;;;;;4917854;29;20063;-84
2022/08/04 06:33:54;;;;;;;9.40;4.57;;;21.10;99.90;;;;;;4917896;29;20048;-78
2022/08/04 06:36:42;;;;;;;12.00;4.53;;;21.20;99.90;;;;;;4901588;29;20067;-80
2022/08/04 06:39:30;;;;;;;10.65;4.60;;;21.30;99.90;;;;;;4919000;29;20468;-79
2022/08/04 06:42:20;;;;;;;13.68;5.30;;;21.50;99.90;;;;;;4921155;29;20056;-80
2022/08/04 06:45:08;;;;;;;14.95;5.25;;;21.70;99.90;;;;;;4921545;29;20501;-82
2022/08/04 06:47:55;;;;;;;13.18;6.28;;;21.80;99.90;;;;;;4916691;29;20476;-77
2022/08/04 06:50:46;;;;;;;17.05;6.50;;;21.90;99.90;;;;;;4915926;29;20044;-78
2022/08/04 06:53:32;;;;;;;14.80;5.78;;;22.00;99.90;;;;;;4900582;29;20143;-81
2022/08/04 06:56:21;;;;;;;19.88;6.18;;;22.20;99.90;;;;;;4903633;29;20488;-77
2022/08/04 06:59:09;;;;;;;14.35;5.88;;;22.20;99.90;;;;;;4901114;29;20060;-78
2022/08/04 07:02:00;;;;;;;15.80;6.13;;;22.20;99.90;;;;;;4903211;29;20420;-78
2022/08/04 07:04:47;;;;;;;13.50;5.93;;;22.30;99.90;;;;;;4904188;29;20107;-76
2022/08/04 07:07:34;;;;;;;15.60;5.68;;;22.30;99.90;;;;;;4916498;29;20563;-79
2022/08/04 07:10:22;;;;;;;12.35;6.95;;;22.40;99.90;;;;;;4918104;29;20111;-77
2022/08/04 07:13:12;;;;;;;11.98;4.75;;;22.50;99.90;;;;;;4916021;29;20471;-77
2022/08/04 07:16:00;;;;;;;14.32;5.13;;;22.40;99.90;;;;;;4915703;29;20416;-77
2022/08/04 07:18:46;;;;;;;15.40;5.45;;;22.50;99.90;;;;;;4899677;29;20131;-79
2022/08/04 07:21:35;;;;;;;9.77;4.90;;;22.50;99.90;;;;;;4917870;29;20140;-77
2022/08/04 07:24:32;;;;;;;13.57;5.88;;;22.60;99.90;;;;;;4925628;29;20495;-79
2022/08/04 07:27:19;;;;;;;12.80;4.97;;;22.80;99.90;;;;;;4919680;29;20412;-76
2022/08/04 07:30:06;;;;;;;20.83;5.80;;;23.10;99.90;;;;;;4916979;29;20816;-84
2022/08/04 07:32:53;;;;;;;21.50;5.75;;;23.30;99.90;;;;;;4916824;29;20051;-83
2022/08/04 07:35:40;;;;;;;12.60;5.25;;;23.50;99.90;;;;;;4916965;29;20087;-83
2022/08/04 07:38:26;;;;;;;9.75;4.70;;;23.60;99.90;;;;;;4916026;29;20064;-83
2022/08/04 07:41:18;;;;;;;10.57;4.85;;;23.60;99.90;;;;;;4917735;29;20051;-82
2022/08/04 07:44:05;;;;;;;13.88;5.30;;;23.60;99.90;;;;;;4920221;29;20044;-81
2022/08/04 07:46:53;;;;;;;13.35;4.97;;;23.60;99.90;;;;;;4921037;29;20511;-85
2022/08/04 07:49:41;;;;;;;10.65;6.35;;;23.80;99.90;;;;;;4915759;29;20498;-86
2022/08/04 07:52:28;;;;;;;10.02;5.05;;;23.90;99.90;;;;;;4900872;29;20056;-81
2022/08/04 07:55:15;;;;;;;9.23;5.25;;;23.90;99.90;;;;;;4899835;29;20052;-82
2022/08/04 07:58:01;;;;;;;11.77;5.13;;;24.10;99.90;;;;;;4916717;29;20052;-82
2022/08/04 08:00:47;;;;;;;7.97;4.55;;;24.20;99.90;;;;;;4915504;29;20576;-84
2022/08/04 08:03:35;;;;;;;11.40;5.38;;;24.30;99.90;;;;;;4899407;29;20111;-81
2022/08/04 08:06:25;;;;;;;11.23;4.90;;;24.30;99.90;;;;;;4915747;29;20485;-77
2022/08/04 08:09:13;;;;;;;10.85;5.10;;;24.50;99.90;;;;;;4919984;29;20048;-81
2022/08/04 08:12:02;;;;;;;12.98;4.90;;;24.70;99.90;;;;;;4920579;29;20043;-79
2022/08/04 08:14:49;;;;;;;10.95;5.20;;;24.80;99.90;;;;;;4916792;29;20111;-81
2022/08/04 08:17:36;;;;;;;11.48;4.50;;;25.00;99.90;;;;;;4902233;29;20052;-82
2022/08/04 08:20:22;;;;;;;8.48;3.30;;;25.10;99.90;;;;;;4916012;29;20058;-83
2022/08/04 08:23:09;;;;;;;8.52;4.00;;;25.20;99.90;;;;;;4916205;29;20055;-82
2022/08/04 08:25:56;;;;;;;8.15;3.83;;;25.30;99.90;;;;;;4898841;29;20473;-81
2022/08/04 08:28:42;;;;;;;10.38;3.88;;;25.40;99.90;;;;;;4915747;29;20048;-81
2022/08/04 08:31:29;;;;;;;11.80;3.72;;;25.60;99.90;;;;;;4898003;29;20052;-82
2022/08/04 08:34:15;;;;;;;11.25;3.78;;;25.80;99.90;;;;;;4899255;29;20060;-81
2022/08/04 08:37:38;;;;;;;8.90;4.20;;;25.90;99.90;;;;;;4885836;29;20052;-79
2022/08/04 08:40:51;;;;;;;6.13;2.58;;;26.00;99.90;;;;;;4914661;29;20107;-79
2022/08/04 08:44:15;;;;;;;5.13;2.30;;;26.20;99.90;;;;;;4916741;29;20460;-79
2022/08/04 08:47:19;;;;;;;5.10;2.50;;;26.50;99.90;;;;;;4915810;29;20048;-79
2022/08/04 08:50:38;;;;;;;10.15;3.78;;;26.60;99.90;;;;;;4915300;29;20052;-77
2022/08/04 08:53:52;;;;;;;12.60;2.67;;;26.90;99.90;;;;;;4913990;29;20139;-79
2022/08/04 08:56:57;;;;;;;6.93;2.65;;;27.20;99.90;;;;;;4914098;29;20485;-80
2022/08/04 08:59:57;;;;;;;8.07;3.30;;;27.30;99.90;;;;;;4915122;29;20052;-76
2022/08/04 09:03:15;;;;;;;9.73;2.63;;;27.60;99.90;;;;;;4915010;29;20048;-78
2022/08/04 09:06:40;;;;;;;6.25;2.20;;;27.60;99.90;;;;;;4888343;29;20433;-78
2022/08/04 09:09:47;;;;;;;6.97;1.60;;;27.70;99.90;;;;;;4916754;29;20067;-80
2022/08/04 09:12:58;;;;;;;7.20;1.88;;;27.90;99.90;;;;;;4914359;29;20058;-81
2022/08/04 09:16:06;;;;;;;6.15;1.60;;;28.00;99.90;;;;;;4914150;29;20060;-77
2022/08/04 09:19:11;;;;;;;6.00;2.17;;;28.20;99.90;;;;;;4913750;29;20448;-79
2022/08/04 09:22:07;;;;;;;7.05;1.88;;;28.20;99.90;;;;;;4913321;29;20067;-81
2022/08/04 09:25:03;;;;;;;9.20;2.05;;;28.20;99.90;;;;;;4914362;29;20044;-80
2022/08/04 09:27:59;;;;;;;4.50;1.40;;;28.00;99.90;;;;;;4916288;29;20052;-80
2022/08/04 09:31:09;;;;;;;9.30;1.48;;;28.10;99.90;;;;;;4914935;29;20063;-79
2022/08/04 09:33:58;;;;;;;5.05;1.33;;;28.20;99.90;;;;;;4913013;29;20063;-81
2022/08/04 09:37:03;;;;;;;4.32;1.88;;;28.20;99.90;;;;;;4913882;29;20059;-81
2022/08/04 09:40:14;;;;;;;3.17;1.08;;;28.20;99.90;;;;;;4914592;29;20568;-80
2022/08/04 09:43:32;;;;;;;4.78;1.27;;;28.30;99.70;;;;;;4915428;29;20052;-81
2022/08/04 09:46:58;;;;;;;3.67;0.95;;;28.60;99.10;;;;;;4915121;29;20066;-84
2022/08/04 09:49:54;;;;;;;4.18;1.15;;;28.80;98.90;;;;;;4889142;29;20048;-81
2022/08/04 09:52:42;;;;;;;2.72;1.08;;;28.80;99.20;;;;;;4918276;29;20135;-80
2022/08/04 09:55:45;;;;;;;5.35;1.10;;;28.90;99.10;;;;;;4900919;29;20048;-80
2022/08/04 09:58:45;;;;;;;4.70;1.35;;;29.20;99.10;;;;;;4914039;29;20393;-80
2022/08/04 10:01:33;;;;;;;3.25;0.80;;;29.30;98.50;;;;;;4917108;29;20493;-82
2022/08/04 10:04:21;;;;;;;4.85;1.30;;;29.20;97.90;;;;;;4918716;29;20044;-82
2022/08/04 10:07:39;;;;;;;3.22;0.80;;;29.30;97.50;;;;;;4917729;29;20048;-79
2022/08/04 10:10:50;;;;;;;3.85;0.70;;;29.50;97.50;;;;;;4916821;29;20082;-83
2022/08/04 10:13:37;;;;;;;3.30;0.88;;;29.60;97.20;;;;;;4921442;29;20051;-82
2022/08/04 10:16:55;;;;;;;2.15;0.80;;;29.60;97.30;;;;;;4905206;29;20149;-81
2022/08/04 10:19:41;;;;;;;3.92;1.23;;;29.60;96.80;;;;;;4919194;29;20390;-81
2022/08/04 10:22:37;;;;;;;5.68;1.08;;;29.10;97.70;;;;;;4918711;29;20055;-81
2022/08/04 10:25:48;;;;;;;5.07;1.55;;;29.20;98.10;;;;;;4917783;29;20416;-80
2022/08/04 10:28:59;;;;;;;5.95;1.55;;;28.90;98.00;;;;;;4916422;29;20397;-79
2022/08/04 10:31:58;;;;;;;6.32;1.52;;;28.80;98.60;;;;;;4914767;29;20052;-80
2022/08/04 10:35:01;;;;;;;3.88;1.02;;;28.80;98.70;;;;;;4919102;29;20051;-80
2022/08/04 10:38:14;;;;;;;7.97;1.60;;;28.80;97.90;;;;;;4916980;28;20059;-81
2022/08/04 10:41:07;;;;;;;3.30;1.20;;;28.90;95.90;;;;;;4916842;29;20052;-79
2022/08/04 10:44:31;;;;;;;6.35;1.33;;;29.00;96.50;;;;;;4901872;29;20052;-80
2022/08/04 10:47:25;;;;;;;5.60;1.13;;;29.20;96.10;;;;;;4916081;29;20576;-81
2022/08/04 10:50:14;;;;;;;5.35;1.20;;;29.40;95.50;;;;;;4916001;29;20052;-79
2022/08/04 10:53:13;;;;;;;4.25;1.42;;;29.60;95.50;;;;;;4914868;29;20049;-80
2022/08/04 10:56:16;;;;;;;9.82;2.00;;;29.30;95.20;;;;;;4903464;29;20385;-80
2022/08/04 10:59:18;;;;;;;7.70;2.03;;;28.90;96.30;;;;;;4899281;29;20044;-80
2022/08/04 11:02:30;;;;;;;11.30;2.53;;;28.70;97.30;;;;;;4915378;29;20052;-80
2022/08/04 11:05:33;;;;;;;4.72;1.40;;;28.30;98.00;;;;;;4911671;29;20048;-82
2022/08/04 11:08:33;;;;;;;6.13;1.90;;;28.40;99.30;;;;;;4919292;29;20051;-83
2022/08/04 11:11:40;;;;;;;5.03;1.55;;;28.70;99.60;;;;;;4922274;29;20055;-79
2022/08/04 11:14:38;;;;;;;8.07;2.10;;;28.60;99.10;;;;;;4920879;29;20048;-81
2022/08/04 11:17:35;;;;;;;7.18;1.40;;;28.60;99.30;;;;;;4915672;29;20063;-79
2022/08/04 11:20:45;;;;;;;4.63;1.63;;;28.70;99.30;;;;;;4901808;29;20104;-84
2022/08/04 11:23:36;;;;;;;6.70;1.55;;;28.80;99.60;;;;;;4903268;29;20056;-84
2022/08/04 11:26:44;;;;;;;6.45;1.40;;;29.00;99.80;;;;;;4919768;29;20067;-82
2022/08/04 11:30:08;;;;;;;10.20;1.70;;;29.20;99.40;;;;;;4919973;29;20060;-87
2022/08/04 11:33:05;;;;;;;9.68;1.92;;;29.20;99.20;;;;;;4915770;29;20050;-79
2022/08/04 11:36:31;;;;;;;9.50;2.08;;;29.00;99.10;;;;;;4917530;29;20420;-84
2022/08/04 11:39:29;;;;;;;8.48;1.67;;;28.90;98.50;;;;;;4904539;29;20060;-82
2022/08/04 11:42:30;;;;;;;6.53;2.10;;;29.00;99.40;;;;;;4922546;29;20052;-86
2022/08/04 11:45:23;;;;;;;9.35;2.38;;;28.80;99.40;;;;;;4891712;29;20067;-89
2022/08/04 11:48:16;;;;;;;10.82;2.40;;;28.60;99.30;;;;;;4918759;29;20515;-86
2022/08/04 11:51:04;;;;;;;7.35;2.13;;;28.40;99.70;;;;;;4917740;29;20480;-87
2022/08/04 11:53:50;;;;;;;9.15;2.70;;;28.40;99.70;;;;;;4902157;29;20452;-85
2022/08/04 11:56:37;;;;;;;16.95;2.97;;;28.40;99.90;;;;;;4924568;29;20140;-85
2022/08/04 11:59:25;;;;;;;9.52;2.97;;;28.30;99.90;;;;;;4920933;29;20052;-89
2022/08/04 12:02:49;;;;;;;11.75;2.50;;;28.20;99.90;;;;;;4918176;29;20056;-86
2022/08/04 12:05:53;;;;;;;11.07;2.63;;;28.10;99.80;;;;;;4904623;29;20059;-82
2022/08/04 12:09:01;;;;;;;8.90;2.63;;;28.20;99.90;;;;;;4917431;29;20083;-80
2022/08/04 12:12:12;;;;;;;11.80;2.33;;;28.40;99.90;;;;;;4923708;29;20548;-86
2022/08/04 12:15:26;;;;;;;12.00;3.00;;;28.80;99.00;;;;;;4922249;29;20056;-87
2022/08/04 12:18:50;;;;;;;11.02;2.95;;;28.80;99.10;;;;;;4915513;29;20059;-83
2022/08/04 12:21:44;;;;;;;13.00;2.70;;;28.50;99.20;;;;;;4916057;29;20067;-83
2022/08/04 12:24:39;;;;;;;8.88;2.45;;;28.00;99.90;;;;;;4915551;29;20086;-83
2022/08/04 12:27:41;;;;;;;13.90;2.70;;;28.10;99.90;;;;;;4915885;28;20048;-82
2022/08/04 12:30:36;;;;;;;11.55;2.92;;;28.20;99.90;;;;;;4913729;29;20127;-82
2022/08/04 12:33:27;;;;;;;9.20;2.50;;;28.00;99.90;;;;;;4914262;29;20040;-83
2022/08/04 12:36:25;;;;;;;12.02;3.15;;;28.40;99.90;;;;;;4896471;29;20044;-82
2022/08/04 12:39:16;;;;;;;12.13;2.70;;;28.60;99.90;;;;;;4914263;29;20048;-82
2022/08/04 12:42:25;;;;;;;9.95;2.53;;;29.10;99.90;;;;;;4913933;29;20046;-81
2022/08/04 12:45:14;;;;;;;12.20;2.80;;;29.60;99.00;;;;;;4912833;29;20392;-84
2022/08/04 12:48:05;;;;;;;15.32;3.95;;;29.90;98.60;;;;;;4904703;29;20768;-83
2022/08/04 12:50:53;;;;;;;14.77;2.95;;;30.30;98.30;;;;;;4920393;29;20119;-82
2022/08/04 12:53:41;;;;;;;14.07;2.78;;;29.90;98.00;;;;;;4924920;29;20052;-84
2022/08/04 12:56:29;;;;;;;13.43;3.28;;;29.70;97.90;;;;;;4921819;29;20059;-84
2022/08/04 12:59:16;;;;;;;17.88;3.70;;;29.80;97.60;;;;;;4922396;29;20059;-81
2022/08/04 13:02:04;;;;;;;15.20;3.72;;;29.70;97.50;;;;;;4921338;29;20052;-84
2022/08/04 13:04:52;;;;;;;13.18;3.58;;;29.60;97.60;;;;;;4907420;29;20063;-83
2022/08/04 13:07:42;;;;;;;17.63;3.95;;;28.80;98.50;;;;;;4925991;29;20571;-83
2022/08/04 13:10:30;;;;;;;16.27;4.25;;;28.80;98.70;;;;;;4907829;29;20145;-82
2022/08/04 13:13:24;;;;;;;15.32;5.22;;;28.80;98.30;;;;;;4903994;29;20539;-84
2022/08/04 13:16:11;;;;;;;16.80;4.60;;;28.60;98.70;;;;;;4921157;29;20055;-84
2022/08/04 13:18:59;;;;;;;12.73;4.70;;;28.30;99.20;;;;;;4915873;29;20860;-82
2022/08/04 13:21:46;;;;;;;10.93;3.75;;;28.40;99.10;;;;;;4914883;29;20088;-84
2022/08/04 13:24:34;;;;;;;13.30;4.07;;;28.30;99.00;;;;;;4915763;29;20071;-85
2022/08/04 13:27:24;;;;;;;7.57;2.95;;;28.00;99.20;;;;;;4915064;29;20158;-84
2022/08/04 13:30:12;;;;;;;6.50;3.13;;;28.00;99.90;;;;;;4913976;29;20508;-84
2022/08/04 13:33:04;;;;;;;9.18;2.88;;;28.10;99.10;;;;;;4914929;29;20052;-81
2022/08/04 13:35:50;;;;;;;6.93;2.88;;;28.20;99.10;;;;;;4898471;29;20051;-81
2022/08/04 13:38:52;;;;;;;6.03;2.50;;;27.70;99.20;;;;;;4899460;29;20052;-81
2022/08/04 13:41:47;;;;;;;6.57;2.92;;;27.80;99.30;;;;;;4915299;29;20048;-82
2022/08/04 13:44:35;;;;;;;6.75;3.00;;;27.10;99.60;;;;;;4899831;29;20087;-80
2022/08/04 13:47:27;;;;;;;5.18;2.42;;;26.80;99.90;;;;;;4923161;29;20048;-82
2022/08/04 13:50:26;;;;;;;5.88;2.10;;;26.90;99.90;;;;;;4915412;29;20140;-82
2022/08/04 13:53:16;;;;;;;4.38;2.00;;;27.50;99.90;;;;;;4902429;29;20051;-80
2022/08/04 13:56:06;;;;;;;6.80;2.35;;;27.80;99.20;;;;;;4916153;29;20056;-80
2022/08/04 13:58:58;;;;;;;6.20;2.17;;;27.20;99.30;;;;;;4913552;29;20142;-80
2022/08/04 14:01:55;;;;;;;5.18;2.20;;;27.50;99.70;;;;;;4914028;29;20063;-82
2022/08/04 14:04:53;;;;;;;9.63;2.75;;;27.50;99.20;;;;;;4914785;29;20607;-82
2022/08/04 14:07:45;;;;;;;4.65;1.77;;;27.10;99.20;;;;;;4912866;29;20048;-80
2022/08/04 14:10:32;;;;;;;2.63;1.52;;;26.70;99.90;;;;;;4899179;29;20169;-82
2022/08/04 14:13:29;;;;;;;5.18;1.58;;;26.40;99.90;;;;;;4912502;29;20500;-81
2022/08/04 14:16:20;;;;;;;4.82;1.75;;;26.10;99.90;;;;;;4912718;29;20055;-82
2022/08/04 14:19:06;;;;;;;3.88;1.75;;;26.00;99.90;;;;;;4912852;29;20048;-82
2022/08/04 14:21:53;;;;;;;5.28;1.60;;;26.00;99.90;;;;;;4912882;29;20465;-81
2022/08/04 14:24:39;;;;;;;2.50;1.13;;;26.10;99.90;;;;;;4903515;29;20044;-81
2022/08/04 14:27:28;;;;;;;4.10;1.20;;;26.50;99.90;;;;;;4911797;29;20598;-82
2022/08/04 14:30:36;;;;;;;4.15;1.05;;;27.30;99.60;;;;;;4907749;29;20040;-82
2022/08/04 14:33:24;;;;;;;5.03;1.10;;;28.70;96.70;;;;;;4922371;29;20116;-83
2022/08/04 14:36:11;;;;;;;4.63;1.25;;;29.50;95.30;;;;;;4917869;29;20056;-85
2022/08/04 14:38:57;;;;;;;4.05;1.15;;;30.20;94.00;;;;;;4903419;29;20523;-82
2022/08/04 14:41:47;;;;;;;4.47;1.58;;;30.30;92.70;;;;;;4900356;29;20103;-81
2022/08/04 14:44:54;;;;;;;4.28;0.90;;;30.40;92.30;;;;;;4917504;29;20076;-83
2022/08/04 14:47:41;;;;;;;5.55;1.00;;;30.80;91.90;;;;;;4918475;29;20056;-82
2022/08/04 14:50:39;;;;;;;6.93;1.40;;;31.50;91.70;;;;;;4917648;29;20059;-83
2022/08/04 14:53:28;;;;;;;4.07;1.00;;;31.60;90.90;;;;;;4901215;29;20062;-84
2022/08/04 14:56:14;;;;;;;3.13;1.00;;;32.20;90.30;;;;;;4897993;29;20049;-84
2022/08/04 14:59:08;;;;;;;4.32;1.13;;;32.30;89.00;;;;;;4897479;29;20059;-83
2022/08/04 15:01:55;;;;;;;3.27;0.80;;;32.20;86.80;;;;;;4898601;29;20497;-83
2022/08/04 15:04:44;;;;;;;3.58;1.02;;;32.10;85.90;;;;;;4897383;29;20045;-83
2022/08/04 15:07:31;;;;;;;4.72;0.85;;;32.10;86.00;;;;;;4897223;29;20128;-84
2022/08/04 15:10:19;;;;;;;2.60;1.10;;;32.20;85.50;;;;;;4898281;29;20056;-85
2022/08/04 15:13:06;;;;;;;4.10;0.90;;;32.00;84.20;;;;;;4899175;29;20056;-85
2022/08/04 15:15:52;;;;;;;5.22;0.70;;;32.30;83.60;;;;;;4899341;29;20059;-84
2022/08/04 15:18:40;;;;;;;4.68;0.90;;;32.20;81.60;;;;;;4901307;29;20059;-85